Airfield :
LOGIN :

Register | Disclaimer

   EN    FR    IT 

 










Legend :    VFR   Marginal VFR   IFR   Intensive IFR   Very Intensive IFR
Visi :
Ceiling :
>= 8 km
>= 3000ft
5 to 8 km
1000 to 3000 ft
1500m to 5 km
500 to 1000 ft
800 to 1500m
200 to 500 ft
< 800m
< 200 ft
Symbols :   Thunderstorms  Fog  Heavy snow  Heavy precipitations  Wind > 20 kt
SIGMETs :     Misc.  Thunderstorms  Icing  Turbulence  Mountain Waves  Volcanic Ashes






- Airport Elevation : 909 ft
- IATA code : KSF


EDVK - Kassel Calden

CURRENT METAR :
  • 240820Z 20008KT 170V230 9999 FEW037 BKN078 12/10 Q1014

EXPIRED METARs :
  • 240750Z 21008KT 160V250 9999 FEW015 BKN030 12/10 Q1014
  • 240720Z 12004KT 070V160 9999 SCT015 11/10 Q1014
  • 240650Z 13003KT 5000 SCT031 10/10 Q1014

TAF TAF EDVK
Valid from the 24 at 09:00 until the 24 at 18:00 UTC


240800Z 2409/2418 21009KT 9999 SCT030
PROB30
TEMPO 2411/2418 22015G25KT



MET'MAP, your aeronautical weather chart ! - Copyright ORBIFLY December 2007 - Disclaimer

ORBIFLY MET'MAP TEAM :

Programming & Development : Alexandra Zaïnal
Concept & original design : Baudouin d'Aumeries
Assistance for programming : Marc-Olivier Méhu
Technical & hardware support : Manuel Goepfert

Contact : metmap@orbifly.com




SOURCES & CREDITS :

   NOAA